sensor_id;sensor_type;location;lat;lon;timestamp;P1;durP1;ratioP1;P2;durP2;ratioP2
64188;SDS011;50493;50.970;10.082;2023-01-01T00:01:23;13.65;;;7.38;;
64188;SDS011;50493;50.970;10.082;2023-01-01T00:03:49;13.60;;;7.82;;
64188;SDS011;50493;50.970;10.082;2023-01-01T00:06:15;16.65;;;8.73;;
64188;SDS011;50493;50.970;10.082;2023-01-01T00:08:42;16.45;;;10.48;;
64188;SDS011;50493;50.970;10.082;2023-01-01T00:11:07;11.50;;;5.30;;
64188;SDS011;50493;50.970;10.082;2023-01-01T00:13:35;18.30;;;12.07;;
64188;SDS011;50493;50.970;10.082;2023-01-01T00:16:04;7.05;;;3.20;;
64188;SDS011;50493;50.970;10.082;2023-01-01T00:18:30;5.13;;;2.33;;
64188;SDS011;50493;50.970;10.082;2023-01-01T00:21:00;14.35;;;7.10;;
64188;SDS011;50493;50.970;10.082;2023-01-01T00:23:26;6.93;;;3.40;;
64188;SDS011;50493;50.970;10.082;2023-01-01T00:25:52;6.90;;;3.13;;
64188;SDS011;50493;50.970;10.082;2023-01-01T00:28:17;8.90;;;4.28;;
64188;SDS011;50493;50.970;10.082;2023-01-01T00:30:43;7.95;;;5.18;;
64188;SDS011;50493;50.970;10.082;2023-01-01T00:33:08;7.57;;;3.08;;
64188;SDS011;50493;50.970;10.082;2023-01-01T00:35:33;6.07;;;3.17;;
64188;SDS011;50493;50.970;10.082;2023-01-01T00:37:59;6.70;;;3.28;;
64188;SDS011;50493;50.970;10.082;2023-01-01T00:40:24;7.10;;;3.28;;
64188;SDS011;50493;50.970;10.082;2023-01-01T00:42:51;7.65;;;3.80;;
64188;SDS011;50493;50.970;10.082;2023-01-01T00:45:16;9.70;;;5.43;;
64188;SDS011;50493;50.970;10.082;2023-01-01T00:47:41;9.95;;;5.43;;
64188;SDS011;50493;50.970;10.082;2023-01-01T00:50:07;5.93;;;3.00;;
64188;SDS011;50493;50.970;10.082;2023-01-01T00:52:33;9.05;;;5.28;;
64188;SDS011;50493;50.970;10.082;2023-01-01T00:54:58;8.25;;;4.15;;
64188;SDS011;50493;50.970;10.082;2023-01-01T00:57:23;7.30;;;2.60;;
64188;SDS011;50493;50.970;10.082;2023-01-01T00:59:50;6.30;;;3.42;;
64188;SDS011;50493;50.970;10.082;2023-01-01T01:02:15;6.38;;;2.75;;
64188;SDS011;50493;50.970;10.082;2023-01-01T01:04:40;6.18;;;3.03;;
64188;SDS011;50493;50.970;10.082;2023-01-01T01:07:06;8.73;;;3.13;;
64188;SDS011;50493;50.970;10.082;2023-01-01T01:09:31;6.53;;;2.75;;
64188;SDS011;50493;50.970;10.082;2023-01-01T01:11:57;6.45;;;2.72;;
64188;SDS011;50493;50.970;10.082;2023-01-01T01:14:22;6.80;;;3.00;;
64188;SDS011;50493;50.970;10.082;2023-01-01T01:16:49;9.18;;;5.47;;
64188;SDS011;50493;50.970;10.082;2023-01-01T01:19:14;7.72;;;3.45;;
64188;SDS011;50493;50.970;10.082;2023-01-01T01:21:43;8.23;;;4.47;;
64188;SDS011;50493;50.970;10.082;2023-01-01T01:24:11;10.23;;;3.30;;
64188;SDS011;50493;50.970;10.082;2023-01-01T01:26:36;9.32;;;5.45;;
64188;SDS011;50493;50.970;10.082;2023-01-01T01:29:02;7.18;;;3.67;;
64188;SDS011;50493;50.970;10.082;2023-01-01T01:31:28;7.32;;;3.40;;
64188;SDS011;50493;50.970;10.082;2023-01-01T01:33:56;6.40;;;3.03;;
64188;SDS011;50493;50.970;10.082;2023-01-01T01:36:22;8.43;;;3.70;;
64188;SDS011;50493;50.970;10.082;2023-01-01T01:38:48;8.35;;;3.70;;
64188;SDS011;50493;50.970;10.082;2023-01-01T01:41:14;5.63;;;3.13;;
64188;SDS011;50493;50.970;10.082;2023-01-01T01:43:51;10.30;;;3.47;;
64188;SDS011;50493;50.970;10.082;2023-01-01T01:46:19;9.13;;;3.47;;
64188;SDS011;50493;50.970;10.082;2023-01-01T01:48:50;7.75;;;3.50;;
64188;SDS011;50493;50.970;10.082;2023-01-01T01:51:19;8.57;;;3.78;;
64188;SDS011;50493;50.970;10.082;2023-01-01T01:53:49;9.85;;;4.55;;
64188;SDS011;50493;50.970;10.082;2023-01-01T01:56:18;9.52;;;4.03;;
64188;SDS011;50493;50.970;10.082;2023-01-01T01:58:47;7.38;;;3.63;;
64188;SDS011;50493;50.970;10.082;2023-01-01T02:01:13;8.55;;;4.38;;
64188;SDS011;50493;50.970;10.082;2023-01-01T02:03:40;8.00;;;3.42;;
64188;SDS011;50493;50.970;10.082;2023-01-01T02:06:10;8.43;;;3.88;;
64188;SDS011;50493;50.970;10.082;2023-01-01T02:08:37;8.18;;;3.55;;
64188;SDS011;50493;50.970;10.082;2023-01-01T02:11:02;8.88;;;4.13;;
64188;SDS011;50493;50.970;10.082;2023-01-01T02:13:28;9.60;;;5.78;;
64188;SDS011;50493;50.970;10.082;2023-01-01T02:15:55;8.38;;;5.50;;
64188;SDS011;50493;50.970;10.082;2023-01-01T02:18:27;9.80;;;4.60;;
64188;SDS011;50493;50.970;10.082;2023-01-01T02:21:06;8.48;;;4.00;;
64188;SDS011;50493;50.970;10.082;2023-01-01T02:23:50;8.88;;;4.15;;
64188;SDS011;50493;50.970;10.082;2023-01-01T02:26:24;10.13;;;4.25;;
64188;SDS011;50493;50.970;10.082;2023-01-01T02:29:04;11.13;;;5.40;;
64188;SDS011;50493;50.970;10.082;2023-01-01T02:31:39;8.27;;;4.95;;
64188;SDS011;50493;50.970;10.082;2023-01-01T02:34:10;10.70;;;5.20;;
64188;SDS011;50493;50.970;10.082;2023-01-01T02:36:40;7.53;;;4.35;;
64188;SDS011;50493;50.970;10.082;2023-01-01T02:39:10;9.52;;;4.85;;
64188;SDS011;50493;50.970;10.082;2023-01-01T02:41:39;10.13;;;5.80;;
64188;SDS011;50493;50.970;10.082;2023-01-01T02:44:10;8.40;;;4.32;;
64188;SDS011;50493;50.970;10.082;2023-01-01T02:46:36;10.05;;;4.63;;
64188;SDS011;50493;50.970;10.082;2023-01-01T02:49:02;8.77;;;5.35;;
64188;SDS011;50493;50.970;10.082;2023-01-01T02:51:28;11.23;;;5.43;;
64188;SDS011;50493;50.970;10.082;2023-01-01T02:54:01;10.38;;;6.25;;
64188;SDS011;50493;50.970;10.082;2023-01-01T02:56:34;11.63;;;4.55;;
64188;SDS011;50493;50.970;10.082;2023-01-01T02:59:12;12.27;;;6.03;;
64188;SDS011;50493;50.970;10.082;2023-01-01T03:02:02;10.20;;;5.47;;
64188;SDS011;50493;50.970;10.082;2023-01-01T03:04:34;10.25;;;5.80;;
64188;SDS011;50493;50.970;10.082;2023-01-01T03:07:09;13.40;;;6.63;;
64188;SDS011;50493;50.970;10.082;2023-01-01T03:09:42;10.32;;;5.72;;
64188;SDS011;50493;50.970;10.082;2023-01-01T03:12:13;12.15;;;6.35;;
64188;SDS011;50493;50.970;10.082;2023-01-01T03:14:49;11.73;;;6.38;;
64188;SDS011;50493;50.970;10.082;2023-01-01T03:17:22;11.55;;;6.35;;
64188;SDS011;50493;50.970;10.082;2023-01-01T03:19:54;12.20;;;6.68;;
64188;SDS011;50493;50.970;10.082;2023-01-01T03:22:25;12.45;;;6.78;;
64188;SDS011;50493;50.970;10.082;2023-01-01T03:24:55;12.15;;;7.35;;
64188;SDS011;50493;50.970;10.082;2023-01-01T03:27:24;13.57;;;7.07;;
64188;SDS011;50493;50.970;10.082;2023-01-01T03:29:56;12.38;;;6.40;;
64188;SDS011;50493;50.970;10.082;2023-01-01T03:32:27;14.13;;;7.28;;
64188;SDS011;50493;50.970;10.082;2023-01-01T03:35:17;14.30;;;7.88;;
64188;SDS011;50493;50.970;10.082;2023-01-01T03:37:45;13.15;;;7.78;;
64188;SDS011;50493;50.970;10.082;2023-01-01T03:40:16;13.85;;;7.63;;
64188;SDS011;50493;50.970;10.082;2023-01-01T03:42:44;13.65;;;7.47;;
64188;SDS011;50493;50.970;10.082;2023-01-01T03:45:18;14.10;;;7.05;;
64188;SDS011;50493;50.970;10.082;2023-01-01T03:47:46;13.15;;;7.10;;
64188;SDS011;50493;50.970;10.082;2023-01-01T03:50:12;11.48;;;7.10;;
64188;SDS011;50493;50.970;10.082;2023-01-01T03:52:40;14.15;;;7.63;;
64188;SDS011;50493;50.970;10.082;2023-01-01T03:55:11;12.95;;;7.45;;
64188;SDS011;50493;50.970;10.082;2023-01-01T03:57:43;14.13;;;8.02;;
64188;SDS011;50493;50.970;10.082;2023-01-01T04:00:15;13.30;;;6.82;;
64188;SDS011;50493;50.970;10.082;2023-01-01T04:02:44;14.60;;;8.02;;
64188;SDS011;50493;50.970;10.082;2023-01-01T04:07:39;12.02;;;6.72;;
64188;SDS011;50493;50.970;10.082;2023-01-01T04:10:06;12.70;;;7.53;;
64188;SDS011;50493;50.970;10.082;2023-01-01T04:12:50;12.40;;;6.70;;
64188;SDS011;50493;50.970;10.082;2023-01-01T04:15:20;13.95;;;7.63;;
64188;SDS011;50493;50.970;10.082;2023-01-01T04:17:48;13.52;;;7.15;;
64188;SDS011;50493;50.970;10.082;2023-01-01T04:20:13;14.40;;;8.27;;
64188;SDS011;50493;50.970;10.082;2023-01-01T04:22:39;11.88;;;7.13;;
64188;SDS011;50493;50.970;10.082;2023-01-01T04:25:05;12.55;;;5.90;;
64188;SDS011;50493;50.970;10.082;2023-01-01T04:27:32;15.90;;;6.97;;
64188;SDS011;50493;50.970;10.082;2023-01-01T04:29:57;11.23;;;6.30;;
64188;SDS011;50493;50.970;10.082;2023-01-01T04:32:24;13.63;;;7.60;;
64188;SDS011;50493;50.970;10.082;2023-01-01T04:34:49;12.50;;;6.18;;
64188;SDS011;50493;50.970;10.082;2023-01-01T04:37:15;10.77;;;6.07;;
64188;SDS011;50493;50.970;10.082;2023-01-01T04:39:40;7.50;;;4.32;;
64188;SDS011;50493;50.970;10.082;2023-01-01T04:42:06;14.05;;;6.85;;
64188;SDS011;50493;50.970;10.082;2023-01-01T04:44:31;12.15;;;6.07;;
64188;SDS011;50493;50.970;10.082;2023-01-01T04:46:56;11.35;;;5.40;;
64188;SDS011;50493;50.970;10.082;2023-01-01T04:49:23;8.52;;;4.97;;
64188;SDS011;50493;50.970;10.082;2023-01-01T04:51:48;10.77;;;5.22;;
64188;SDS011;50493;50.970;10.082;2023-01-01T04:54:14;10.20;;;5.00;;
64188;SDS011;50493;50.970;10.082;2023-01-01T04:56:39;10.77;;;5.05;;
64188;SDS011;50493;50.970;10.082;2023-01-01T04:59:05;9.65;;;5.18;;
64188;SDS011;50493;50.970;10.082;2023-01-01T05:01:30;10.05;;;4.97;;
64188;SDS011;50493;50.970;10.082;2023-01-01T05:03:56;7.90;;;4.10;;
64188;SDS011;50493;50.970;10.082;2023-01-01T05:06:24;9.88;;;5.88;;
64188;SDS011;50493;50.970;10.082;2023-01-01T05:08:51;9.20;;;4.60;;
64188;SDS011;50493;50.970;10.082;2023-01-01T05:11:21;10.25;;;6.00;;
64188;SDS011;50493;50.970;10.082;2023-01-01T05:13:48;9.50;;;3.95;;
64188;SDS011;50493;50.970;10.082;2023-01-01T05:16:16;9.32;;;4.03;;
64188;SDS011;50493;50.970;10.082;2023-01-01T05:18:43;8.27;;;4.97;;
64188;SDS011;50493;50.970;10.082;2023-01-01T05:21:10;9.95;;;5.70;;
64188;SDS011;50493;50.970;10.082;2023-01-01T05:23:38;9.55;;;4.82;;
64188;SDS011;50493;50.970;10.082;2023-01-01T05:26:08;10.25;;;5.47;;
64188;SDS011;50493;50.970;10.082;2023-01-01T05:28:36;9.23;;;5.65;;
64188;SDS011;50493;50.970;10.082;2023-01-01T05:31:03;7.95;;;4.15;;
64188;SDS011;50493;50.970;10.082;2023-01-01T05:33:30;8.30;;;4.45;;
64188;SDS011;50493;50.970;10.082;2023-01-01T05:35:55;6.93;;;3.78;;
64188;SDS011;50493;50.970;10.082;2023-01-01T05:38:20;10.20;;;5.30;;
64188;SDS011;50493;50.970;10.082;2023-01-01T05:40:47;8.32;;;4.10;;
64188;SDS011;50493;50.970;10.082;2023-01-01T05:43:12;5.65;;;3.42;;
64188;SDS011;50493;50.970;10.082;2023-01-01T05:45:40;6.47;;;3.42;;
64188;SDS011;50493;50.970;10.082;2023-01-01T05:48:05;7.45;;;3.88;;
64188;SDS011;50493;50.970;10.082;2023-01-01T05:50:31;7.63;;;4.00;;
64188;SDS011;50493;50.970;10.082;2023-01-01T05:52:56;8.82;;;5.05;;
64188;SDS011;50493;50.970;10.082;2023-01-01T05:55:21;7.55;;;3.03;;
64188;SDS011;50493;50.970;10.082;2023-01-01T05:57:48;5.78;;;2.65;;
64188;SDS011;50493;50.970;10.082;2023-01-01T06:00:14;7.15;;;3.25;;
64188;SDS011;50493;50.970;10.082;2023-01-01T06:02:39;6.22;;;3.30;;
64188;SDS011;50493;50.970;10.082;2023-01-01T06:05:05;5.93;;;2.65;;
64188;SDS011;50493;50.970;10.082;2023-01-01T06:07:30;8.15;;;4.50;;
64188;SDS011;50493;50.970;10.082;2023-01-01T06:09:56;6.68;;;3.63;;
64188;SDS011;50493;50.970;10.082;2023-01-01T06:12:21;6.05;;;3.00;;
64188;SDS011;50493;50.970;10.082;2023-01-01T06:14:48;7.05;;;3.55;;
64188;SDS011;50493;50.970;10.082;2023-01-01T06:17:13;6.28;;;3.03;;
64188;SDS011;50493;50.970;10.082;2023-01-01T06:19:38;7.70;;;2.83;;
64188;SDS011;50493;50.970;10.082;2023-01-01T06:22:04;6.68;;;3.35;;
64188;SDS011;50493;50.970;10.082;2023-01-01T06:24:29;4.88;;;2.78;;
64188;SDS011;50493;50.970;10.082;2023-01-01T06:26:55;7.22;;;2.63;;
64188;SDS011;50493;50.970;10.082;2023-01-01T06:29:20;6.18;;;2.70;;
64188;SDS011;50493;50.970;10.082;2023-01-01T06:31:47;7.88;;;2.80;;
64188;SDS011;50493;50.970;10.082;2023-01-01T06:34:12;7.50;;;4.10;;
64188;SDS011;50493;50.970;10.082;2023-01-01T06:36:37;5.88;;;3.10;;
64188;SDS011;50493;50.970;10.082;2023-01-01T06:39:03;6.22;;;3.03;;
64188;SDS011;50493;50.970;10.082;2023-01-01T06:41:29;6.65;;;2.60;;
64188;SDS011;50493;50.970;10.082;2023-01-01T06:43:54;5.10;;;3.00;;
64188;SDS011;50493;50.970;10.082;2023-01-01T06:46:22;6.32;;;2.58;;
64188;SDS011;50493;50.970;10.082;2023-01-01T06:48:51;6.70;;;3.88;;
64188;SDS011;50493;50.970;10.082;2023-01-01T06:51:18;6.47;;;2.53;;
64188;SDS011;50493;50.970;10.082;2023-01-01T06:53:46;6.10;;;2.90;;
64188;SDS011;50493;50.970;10.082;2023-01-01T06:56:12;7.68;;;3.67;;
64188;SDS011;50493;50.970;10.082;2023-01-01T06:58:37;7.28;;;2.90;;
64188;SDS011;50493;50.970;10.082;2023-01-01T07:01:03;5.70;;;3.20;;
64188;SDS011;50493;50.970;10.082;2023-01-01T07:03:29;6.43;;;2.75;;
64188;SDS011;50493;50.970;10.082;2023-01-01T07:05:56;7.10;;;2.88;;
64188;SDS011;50493;50.970;10.082;2023-01-01T07:08:21;7.97;;;3.75;;
64188;SDS011;50493;50.970;10.082;2023-01-01T07:10:47;6.43;;;3.47;;
64188;SDS011;50493;50.970;10.082;2023-01-01T07:13:12;5.88;;;2.85;;
64188;SDS011;50493;50.970;10.082;2023-01-01T07:15:37;4.78;;;2.42;;
64188;SDS011;50493;50.970;10.082;2023-01-01T07:18:03;6.40;;;3.40;;
64188;SDS011;50493;50.970;10.082;2023-01-01T07:20:28;4.80;;;2.35;;
64188;SDS011;50493;50.970;10.082;2023-01-01T07:22:55;5.60;;;3.35;;
64188;SDS011;50493;50.970;10.082;2023-01-01T07:25:20;5.03;;;2.33;;
64188;SDS011;50493;50.970;10.082;2023-01-01T07:27:46;5.97;;;2.65;;
64188;SDS011;50493;50.970;10.082;2023-01-01T07:30:11;7.60;;;2.90;;
64188;SDS011;50493;50.970;10.082;2023-01-01T07:32:37;7.55;;;2.67;;
64188;SDS011;50493;50.970;10.082;2023-01-01T07:35:02;7.78;;;3.70;;
64188;SDS011;50493;50.970;10.082;2023-01-01T07:37:28;6.20;;;2.80;;
64188;SDS011;50493;50.970;10.082;2023-01-01T07:39:55;9.77;;;2.60;;
64188;SDS011;50493;50.970;10.082;2023-01-01T07:42:20;6.60;;;2.40;;
64188;SDS011;50493;50.970;10.082;2023-01-01T07:44:45;6.13;;;2.70;;
64188;SDS011;50493;50.970;10.082;2023-01-01T07:47:13;5.85;;;2.95;;
64188;SDS011;50493;50.970;10.082;2023-01-01T07:49:44;6.90;;;2.53;;
64188;SDS011;50493;50.970;10.082;2023-01-01T07:52:09;5.72;;;2.35;;
64188;SDS011;50493;50.970;10.082;2023-01-01T07:54:34;6.70;;;2.70;;
64188;SDS011;50493;50.970;10.082;2023-01-01T07:57:01;9.60;;;3.00;;
64188;SDS011;50493;50.970;10.082;2023-01-01T07:59:26;5.97;;;2.63;;
64188;SDS011;50493;50.970;10.082;2023-01-01T08:01:52;7.28;;;2.55;;
64188;SDS011;50493;50.970;10.082;2023-01-01T08:04:17;6.57;;;2.88;;
64188;SDS011;50493;50.970;10.082;2023-01-01T08:06:42;9.05;;;2.88;;
64188;SDS011;50493;50.970;10.082;2023-01-01T08:09:08;7.00;;;2.40;;
64188;SDS011;50493;50.970;10.082;2023-01-01T08:11:34;6.80;;;2.90;;
64188;SDS011;50493;50.970;10.082;2023-01-01T08:14:00;5.90;;;2.50;;
64188;SDS011;50493;50.970;10.082;2023-01-01T08:16:26;5.95;;;2.92;;
64188;SDS011;50493;50.970;10.082;2023-01-01T08:18:51;5.90;;;2.47;;
64188;SDS011;50493;50.970;10.082;2023-01-01T08:21:17;7.47;;;3.38;;
64188;SDS011;50493;50.970;10.082;2023-01-01T08:23:42;10.13;;;3.10;;
64188;SDS011;50493;50.970;10.082;2023-01-01T08:26:11;12.07;;;2.63;;
64188;SDS011;50493;50.970;10.082;2023-01-01T08:28:38;5.50;;;2.28;;
64188;SDS011;50493;50.970;10.082;2023-01-01T08:31:05;6.30;;;2.22;;
64188;SDS011;50493;50.970;10.082;2023-01-01T08:33:30;6.28;;;2.78;;
64188;SDS011;50493;50.970;10.082;2023-01-01T08:35:56;7.47;;;3.15;;
64188;SDS011;50493;50.970;10.082;2023-01-01T08:38:21;7.22;;;2.55;;
64188;SDS011;50493;50.970;10.082;2023-01-01T08:40:47;4.88;;;2.60;;
64188;SDS011;50493;50.970;10.082;2023-01-01T08:43:12;5.25;;;2.65;;
64188;SDS011;50493;50.970;10.082;2023-01-01T08:45:37;5.45;;;1.98;;
64188;SDS011;50493;50.970;10.082;2023-01-01T08:48:04;6.18;;;2.70;;
64188;SDS011;50493;50.970;10.082;2023-01-01T08:50:30;6.78;;;2.40;;
64188;SDS011;50493;50.970;10.082;2023-01-01T08:52:56;5.25;;;2.60;;
64188;SDS011;50493;50.970;10.082;2023-01-01T08:55:22;8.13;;;2.50;;
64188;SDS011;50493;50.970;10.082;2023-01-01T08:57:47;9.23;;;2.85;;
64188;SDS011;50493;50.970;10.082;2023-01-01T09:00:13;4.57;;;2.72;;
64188;SDS011;50493;50.970;10.082;2023-01-01T09:02:38;8.90;;;2.67;;
64188;SDS011;50493;50.970;10.082;2023-01-01T09:05:06;6.72;;;2.60;;
64188;SDS011;50493;50.970;10.082;2023-01-01T09:07:32;7.80;;;3.22;;
64188;SDS011;50493;50.970;10.082;2023-01-01T09:09:57;6.53;;;2.60;;
64188;SDS011;50493;50.970;10.082;2023-01-01T09:12:23;6.60;;;2.67;;
64188;SDS011;50493;50.970;10.082;2023-01-01T09:14:48;5.95;;;2.92;;
64188;SDS011;50493;50.970;10.082;2023-01-01T09:17:13;9.85;;;2.70;;
64188;SDS011;50493;50.970;10.082;2023-01-01T09:19:39;6.38;;;2.63;;
64188;SDS011;50493;50.970;10.082;2023-01-01T09:22:08;7.45;;;3.15;;
64188;SDS011;50493;50.970;10.082;2023-01-01T09:24:34;6.18;;;2.95;;
64188;SDS011;50493;50.970;10.082;2023-01-01T09:26:59;7.10;;;2.88;;
64188;SDS011;50493;50.970;10.082;2023-01-01T09:29:25;7.43;;;2.53;;
64188;SDS011;50493;50.970;10.082;2023-01-01T09:31:50;6.32;;;2.42;;
64188;SDS011;50493;50.970;10.082;2023-01-01T09:34:15;6.05;;;2.47;;
64188;SDS011;50493;50.970;10.082;2023-01-01T09:36:42;7.05;;;2.20;;
64188;SDS011;50493;50.970;10.082;2023-01-01T09:39:10;9.50;;;2.78;;
64188;SDS011;50493;50.970;10.082;2023-01-01T09:41:46;6.25;;;3.03;;
64188;SDS011;50493;50.970;10.082;2023-01-01T09:44:28;5.35;;;3.03;;
64188;SDS011;50493;50.970;10.082;2023-01-01T09:47:17;7.03;;;2.90;;
64188;SDS011;50493;50.970;10.082;2023-01-01T09:49:48;4.03;;;1.85;;
64188;SDS011;50493;50.970;10.082;2023-01-01T09:52:16;5.93;;;2.50;;
64188;SDS011;50493;50.970;10.082;2023-01-01T09:54:46;7.22;;;2.42;;
64188;SDS011;50493;50.970;10.082;2023-01-01T09:57:16;5.97;;;2.00;;
64188;SDS011;50493;50.970;10.082;2023-01-01T09:59:42;7.65;;;2.63;;
64188;SDS011;50493;50.970;10.082;2023-01-01T10:02:10;3.92;;;2.30;;
64188;SDS011;50493;50.970;10.082;2023-01-01T10:04:49;6.20;;;2.53;;
64188;SDS011;50493;50.970;10.082;2023-01-01T10:07:24;7.07;;;2.30;;
64188;SDS011;50493;50.970;10.082;2023-01-01T10:10:01;9.40;;;2.92;;
64188;SDS011;50493;50.970;10.082;2023-01-01T10:12:32;7.38;;;3.00;;
64188;SDS011;50493;50.970;10.082;2023-01-01T10:15:03;6.07;;;2.30;;
64188;SDS011;50493;50.970;10.082;2023-01-01T10:17:37;6.43;;;2.45;;
64188;SDS011;50493;50.970;10.082;2023-01-01T10:22:36;8.88;;;2.55;;
64188;SDS011;50493;50.970;10.082;2023-01-01T10:25:12;6.32;;;2.85;;
64188;SDS011;50493;50.970;10.082;2023-01-01T10:27:43;6.90;;;2.55;;
64188;SDS011;50493;50.970;10.082;2023-01-01T10:30:12;8.52;;;2.60;;
64188;SDS011;50493;50.970;10.082;2023-01-01T10:32:40;5.13;;;2.38;;
64188;SDS011;50493;50.970;10.082;2023-01-01T10:35:10;5.32;;;2.40;;
64188;SDS011;50493;50.970;10.082;2023-01-01T10:37:37;9.57;;;2.40;;
64188;SDS011;50493;50.970;10.082;2023-01-01T10:40:04;8.95;;;2.60;;
64188;SDS011;50493;50.970;10.082;2023-01-01T10:42:38;7.82;;;2.58;;
64188;SDS011;50493;50.970;10.082;2023-01-01T10:45:04;6.30;;;2.47;;
64188;SDS011;50493;50.970;10.082;2023-01-01T10:47:30;7.95;;;2.80;;
64188;SDS011;50493;50.970;10.082;2023-01-01T10:49:56;6.55;;;2.50;;
64188;SDS011;50493;50.970;10.082;2023-01-01T10:52:27;4.63;;;2.17;;
64188;SDS011;50493;50.970;10.082;2023-01-01T10:54:55;5.45;;;2.60;;
64188;SDS011;50493;50.970;10.082;2023-01-01T10:57:28;6.25;;;2.30;;
64188;SDS011;50493;50.970;10.082;2023-01-01T11:00:05;5.13;;;2.80;;
64188;SDS011;50493;50.970;10.082;2023-01-01T11:02:35;5.55;;;3.08;;
64188;SDS011;50493;50.970;10.082;2023-01-01T11:05:14;5.85;;;2.42;;
64188;SDS011;50493;50.970;10.082;2023-01-01T11:07:41;6.03;;;2.58;;
64188;SDS011;50493;50.970;10.082;2023-01-01T11:10:13;8.35;;;3.42;;
64188;SDS011;50493;50.970;10.082;2023-01-01T11:12:40;4.53;;;2.30;;
64188;SDS011;50493;50.970;10.082;2023-01-01T11:15:18;6.03;;;2.38;;
64188;SDS011;50493;50.970;10.082;2023-01-01T11:17:46;5.93;;;2.60;;
64188;SDS011;50493;50.970;10.082;2023-01-01T11:20:14;5.90;;;3.40;;
64188;SDS011;50493;50.970;10.082;2023-01-01T11:22:43;6.63;;;2.60;;
64188;SDS011;50493;50.970;10.082;2023-01-01T11:25:15;8.75;;;3.00;;
64188;SDS011;50493;50.970;10.082;2023-01-01T11:27:43;6.60;;;3.20;;
64188;SDS011;50493;50.970;10.082;2023-01-01T11:30:20;12.45;;;3.45;;
64188;SDS011;50493;50.970;10.082;2023-01-01T11:32:48;6.10;;;2.85;;
64188;SDS011;50493;50.970;10.082;2023-01-01T11:35:16;7.68;;;2.90;;
64188;SDS011;50493;50.970;10.082;2023-01-01T11:37:45;7.03;;;3.40;;
64188;SDS011;50493;50.970;10.082;2023-01-01T11:40:15;5.22;;;2.65;;
64188;SDS011;50493;50.970;10.082;2023-01-01T11:42:43;9.98;;;3.38;;
64188;SDS011;50493;50.970;10.082;2023-01-01T11:45:12;7.35;;;2.25;;
64188;SDS011;50493;50.970;10.082;2023-01-01T11:47:48;10.15;;;4.40;;
64188;SDS011;50493;50.970;10.082;2023-01-01T11:50:18;5.10;;;2.47;;
64188;SDS011;50493;50.970;10.082;2023-01-01T11:52:49;6.80;;;3.28;;
64188;SDS011;50493;50.970;10.082;2023-01-01T11:55:18;9.88;;;3.80;;
64188;SDS011;50493;50.970;10.082;2023-01-01T11:57:56;15.13;;;8.23;;
64188;SDS011;50493;50.970;10.082;2023-01-01T12:00:26;7.10;;;2.78;;
64188;SDS011;50493;50.970;10.082;2023-01-01T12:02:58;5.57;;;2.13;;
64188;SDS011;50493;50.970;10.082;2023-01-01T12:05:33;6.13;;;2.80;;
64188;SDS011;50493;50.970;10.082;2023-01-01T12:08:07;6.60;;;2.40;;
64188;SDS011;50493;50.970;10.082;2023-01-01T12:10:40;7.65;;;2.45;;
64188;SDS011;50493;50.970;10.082;2023-01-01T12:13:10;8.05;;;2.80;;
64188;SDS011;50493;50.970;10.082;2023-01-01T12:15:44;6.10;;;2.47;;
64188;SDS011;50493;50.970;10.082;2023-01-01T12:18:19;7.78;;;2.58;;
64188;SDS011;50493;50.970;10.082;2023-01-01T12:20:51;6.88;;;2.60;;
64188;SDS011;50493;50.970;10.082;2023-01-01T12:23:21;4.47;;;2.20;;
64188;SDS011;50493;50.970;10.082;2023-01-01T12:25:48;8.02;;;2.55;;
64188;SDS011;50493;50.970;10.082;2023-01-01T12:28:22;5.25;;;2.25;;
64188;SDS011;50493;50.970;10.082;2023-01-01T12:30:55;6.95;;;2.67;;
64188;SDS011;50493;50.970;10.082;2023-01-01T12:33:41;6.65;;;2.83;;
64188;SDS011;50493;50.970;10.082;2023-01-01T12:36:24;9.55;;;4.40;;
64188;SDS011;50493;50.970;10.082;2023-01-01T12:39:06;6.25;;;2.30;;
64188;SDS011;50493;50.970;10.082;2023-01-01T12:42:24;8.23;;;3.58;;
64188;SDS011;50493;50.970;10.082;2023-01-01T12:45:01;5.63;;;2.75;;
64188;SDS011;50493;50.970;10.082;2023-01-01T12:47:43;16.60;;;8.70;;
64188;SDS011;50493;50.970;10.082;2023-01-01T12:50:20;19.40;;;10.32;;
64188;SDS011;50493;50.970;10.082;2023-01-01T12:52:57;11.02;;;5.70;;
64188;SDS011;50493;50.970;10.082;2023-01-01T12:55:38;5.22;;;2.72;;
64188;SDS011;50493;50.970;10.082;2023-01-01T12:58:17;7.75;;;3.60;;
64188;SDS011;50493;50.970;10.082;2023-01-01T13:00:49;9.65;;;4.65;;
64188;SDS011;50493;50.970;10.082;2023-01-01T13:03:20;7.05;;;2.35;;
64188;SDS011;50493;50.970;10.082;2023-01-01T13:05:52;7.28;;;2.35;;
64188;SDS011;50493;50.970;10.082;2023-01-01T13:08:20;7.57;;;2.63;;
64188;SDS011;50493;50.970;10.082;2023-01-01T13:10:46;7.15;;;3.70;;
64188;SDS011;50493;50.970;10.082;2023-01-01T13:13:14;8.00;;;2.58;;
64188;SDS011;50493;50.970;10.082;2023-01-01T13:15:41;6.72;;;3.03;;
64188;SDS011;50493;50.970;10.082;2023-01-01T13:18:22;7.68;;;2.88;;
64188;SDS011;50493;50.970;10.082;2023-01-01T13:20:55;8.10;;;3.08;;
64188;SDS011;50493;50.970;10.082;2023-01-01T13:23:41;6.00;;;2.80;;
64188;SDS011;50493;50.970;10.082;2023-01-01T13:31:59;7.88;;;2.42;;
64188;SDS011;50493;50.970;10.082;2023-01-01T13:34:32;9.82;;;2.53;;
64188;SDS011;50493;50.970;10.082;2023-01-01T13:37:31;4.53;;;2.30;;
64188;SDS011;50493;50.970;10.082;2023-01-01T13:43:18;8.60;;;2.13;;
64188;SDS011;50493;50.970;10.082;2023-01-01T13:45:49;6.45;;;2.17;;
64188;SDS011;50493;50.970;10.082;2023-01-01T13:48:24;5.68;;;2.38;;
64188;SDS011;50493;50.970;10.082;2023-01-01T13:51:00;5.63;;;2.25;;
64188;SDS011;50493;50.970;10.082;2023-01-01T13:53:45;6.82;;;2.60;;
64188;SDS011;50493;50.970;10.082;2023-01-01T13:56:25;6.78;;;2.63;;
64188;SDS011;50493;50.970;10.082;2023-01-01T13:59:18;6.00;;;2.50;;
64188;SDS011;50493;50.970;10.082;2023-01-01T14:02:00;6.63;;;2.58;;
64188;SDS011;50493;50.970;10.082;2023-01-01T14:04:38;7.32;;;2.60;;
64188;SDS011;50493;50.970;10.082;2023-01-01T14:07:11;11.55;;;3.10;;
64188;SDS011;50493;50.970;10.082;2023-01-01T14:09:47;9.52;;;2.38;;
64188;SDS011;50493;50.970;10.082;2023-01-01T14:12:14;7.20;;;2.33;;
64188;SDS011;50493;50.970;10.082;2023-01-01T14:14:41;6.00;;;2.83;;
64188;SDS011;50493;50.970;10.082;2023-01-01T14:17:06;8.20;;;2.80;;
64188;SDS011;50493;50.970;10.082;2023-01-01T14:19:32;5.55;;;2.53;;
64188;SDS011;50493;50.970;10.082;2023-01-01T14:21:58;6.35;;;2.67;;
64188;SDS011;50493;50.970;10.082;2023-01-01T14:24:24;7.60;;;2.88;;
64188;SDS011;50493;50.970;10.082;2023-01-01T14:26:53;7.93;;;3.03;;
64188;SDS011;50493;50.970;10.082;2023-01-01T14:29:21;5.25;;;2.60;;
64188;SDS011;50493;50.970;10.082;2023-01-01T14:31:50;6.68;;;2.88;;
64188;SDS011;50493;50.970;10.082;2023-01-01T14:34:19;7.57;;;2.60;;
64188;SDS011;50493;50.970;10.082;2023-01-01T14:36:48;6.30;;;2.63;;
64188;SDS011;50493;50.970;10.082;2023-01-01T14:39:20;8.43;;;2.83;;
64188;SDS011;50493;50.970;10.082;2023-01-01T14:41:48;5.05;;;2.30;;
64188;SDS011;50493;50.970;10.082;2023-01-01T14:44:17;12.05;;;6.40;;
64188;SDS011;50493;50.970;10.082;2023-01-01T14:46:46;10.10;;;3.15;;
64188;SDS011;50493;50.970;10.082;2023-01-01T14:49:14;8.38;;;3.97;;
64188;SDS011;50493;50.970;10.082;2023-01-01T14:51:45;5.93;;;2.40;;
64188;SDS011;50493;50.970;10.082;2023-01-01T14:54:15;9.93;;;3.10;;
64188;SDS011;50493;50.970;10.082;2023-01-01T14:56:45;9.30;;;2.88;;